Jingyuan, China
Current Conditions -  °F | °C
As of 7:00 PM on Wednesday 26 Nov 2014 (Local Time) from ZLLL Reporting Station
Scattered Clouds Scattered Clouds  
Wind Chill: 25°   Ceiling: Unl
Heat Index: 30°   Visibility: 6mi
Dew Point: 19°   Wind: 4mph
Humidity: 64%   Direction: 30°NNE
Pressure: 30"   Gusts: NA
Location:  36.58°N, 104.67°E
Report Text: ZLLL 261100Z 03002MPS 9999 SCT046 M01/M07 Q1016 NOSIG
Loading
Personal Weather Stations






























Interactive Weather Map New forecast layout! Learn more

10-Day Weather Forecast

Advertisements
Track Severe Weather on mobile